createdAt,value
2023-03-29T00:00:51.190Z,6.73
2023-03-29T00:03:57.083Z,6.75
2023-03-29T00:07:04.722Z,6.80
2023-03-29T00:10:12.309Z,6.91
2023-03-29T00:13:18.542Z,6.95
2023-03-29T00:16:23.901Z,6.89
2023-03-29T00:19:35.774Z,6.88
2023-03-29T00:22:47.185Z,7.08
2023-03-29T00:25:56.799Z,7.15
2023-03-29T00:29:02.569Z,6.98
2023-03-29T00:32:08.295Z,6.90
2023-03-29T00:35:13.980Z,6.68
2023-03-29T00:38:19.491Z,6.73
2023-03-29T00:41:24.551Z,6.77
2023-03-29T00:45:04.379Z,6.89
2023-03-29T00:48:17.777Z,6.90
2023-03-29T00:51:27.143Z,6.97
2023-03-29T00:54:33.200Z,7.01
2023-03-29T00:57:43.732Z,6.81
2023-03-29T01:00:55.896Z,6.87
2023-03-29T01:04:18.558Z,6.88
2023-03-29T01:07:50.627Z,6.83
2023-03-29T01:11:19.709Z,6.87
2023-03-29T01:14:46.997Z,6.80
2023-03-29T01:17:54.203Z,6.82
2023-03-29T01:21:23.899Z,6.91
2023-03-29T01:24:45.450Z,6.87
2023-03-29T01:28:04.545Z,6.83
2023-03-29T01:31:19.096Z,6.81
2023-03-29T01:35:00.176Z,7.02
2023-03-29T01:38:18.841Z,6.89
2023-03-29T01:41:40.777Z,6.90
2023-03-29T01:45:02.471Z,6.92
2023-03-29T01:48:25.100Z,6.86
2023-03-29T01:51:59.691Z,6.91
2023-03-29T01:55:31.911Z,6.97
2023-03-29T01:58:45.361Z,6.94
2023-03-29T02:01:55.709Z,6.93
2023-03-29T02:05:06.874Z,6.90
2023-03-29T02:08:15.723Z,6.95
2023-03-29T02:11:23.936Z,7.02
2023-03-29T02:14:30.868Z,7.00
2023-03-29T02:17:37.032Z,7.05
2023-03-29T02:20:49.915Z,7.13
2023-03-29T02:23:59.112Z,7.15
2023-03-29T02:27:05.323Z,7.07
2023-03-29T02:30:16.007Z,7.05
2023-03-29T02:33:33.078Z,7.10
2023-03-29T02:36:47.007Z,7.12
2023-03-29T02:39:54.100Z,7.18
2023-03-29T02:43:02.360Z,7.13
2023-03-29T02:46:09.510Z,7.16
2023-03-29T02:49:15.253Z,7.16
2023-03-29T02:52:26.690Z,7.01
2023-03-29T02:55:34.994Z,7.00
2023-03-29T02:58:41.502Z,6.99
2023-03-29T03:01:47.201Z,6.91
2023-03-29T03:04:52.856Z,6.66
2023-03-29T03:07:58.630Z,6.79
2023-03-29T03:11:04.398Z,6.82
2023-03-29T03:14:10.430Z,6.78
2023-03-29T03:17:15.891Z,6.64
2023-03-29T03:20:23.927Z,6.69
2023-03-29T03:23:29.730Z,6.69
2023-03-29T03:26:36.277Z,6.79
2023-03-29T03:29:44.269Z,6.63
2023-03-29T03:32:50.118Z,6.71
2023-03-29T03:36:26.289Z,6.66
2023-03-29T03:39:33.675Z,6.44
2023-03-29T03:42:41.524Z,6.40
2023-03-29T03:45:47.446Z,6.60
2023-03-29T03:48:55.738Z,6.46
2023-03-29T03:52:08.427Z,6.47
2023-03-29T03:55:14.567Z,6.61
2023-03-29T03:58:24.890Z,6.47
2023-03-29T04:01:30.454Z,6.64
2023-03-29T04:04:51.277Z,6.68
2023-03-29T04:07:58.655Z,6.55
2023-03-29T04:11:18.213Z,6.55
2023-03-29T04:14:24.369Z,6.90
2023-03-29T04:17:57.045Z,6.74
2023-03-29T04:21:09.596Z,6.71
2023-03-29T04:24:15.401Z,6.75
2023-03-29T04:27:24.722Z,6.60
2023-03-29T04:30:30.220Z,6.68
2023-03-29T04:33:56.337Z,6.78
2023-03-29T04:37:10.356Z,6.56
2023-03-29T04:40:19.579Z,6.48
2023-03-29T04:43:49.396Z,6.68
2023-03-29T04:47:03.344Z,6.70
2023-03-29T04:50:17.565Z,6.76
2023-03-29T04:53:24.163Z,6.65
2023-03-29T04:56:30.050Z,6.74
2023-03-29T04:59:57.827Z,6.27
2023-03-29T05:03:24.258Z,6.48
2023-03-29T05:06:37.161Z,6.37
2023-03-29T05:09:44.618Z,6.10
2023-03-29T05:12:54.419Z,6.25
2023-03-29T05:16:01.929Z,6.19
2023-03-29T05:19:09.598Z,6.11
2023-03-29T05:22:19.215Z,6.24
2023-03-29T05:25:26.302Z,6.17
2023-03-29T05:28:33.972Z,6.08
2023-03-29T05:31:41.765Z,5.93
2023-03-29T05:34:47.374Z,6.04
2023-03-29T05:37:54.126Z,5.82
2023-03-29T05:41:02.090Z,6.09
2023-03-29T05:44:07.695Z,5.66
2023-03-29T05:47:14.784Z,6.21
2023-03-29T05:50:20.259Z,6.35
2023-03-29T05:53:28.798Z,6.19
2023-03-29T05:56:34.537Z,6.35
2023-03-29T05:59:39.948Z,6.53
2023-03-29T06:02:45.921Z,6.03
2023-03-29T06:06:02.651Z,6.39
2023-03-29T06:09:09.810Z,6.51
2023-03-29T06:12:20.711Z,6.10
2023-03-29T06:15:45.251Z,6.01
2023-03-29T06:18:50.988Z,5.89
2023-03-29T06:21:57.234Z,5.92
2023-03-29T06:25:07.829Z,6.18
2023-03-29T06:28:15.109Z,6.25
2023-03-29T06:31:21.455Z,6.67
2023-03-29T06:34:29.956Z,6.88
2023-03-29T06:37:54.907Z,6.60
2023-03-29T06:41:11.455Z,6.75
2023-03-29T06:44:53.743Z,6.99
2023-03-29T06:47:59.464Z,7.29
2023-03-29T06:51:07.805Z,7.40
2023-03-29T06:54:13.485Z,7.52
2023-03-29T06:57:28.740Z,7.36
2023-03-29T07:00:38.245Z,7.66
2023-03-29T07:03:52.929Z,7.89
2023-03-29T07:07:06.242Z,7.92
2023-03-29T07:10:13.880Z,8.11
2023-03-29T07:13:38.758Z,8.17
2023-03-29T07:16:47.442Z,8.22
2023-03-29T07:19:58.037Z,8.43
2023-03-29T07:23:23.820Z,8.46
2023-03-29T07:26:30.856Z,8.70
2023-03-29T07:29:38.056Z,8.81
2023-03-29T07:32:46.723Z,8.95
2023-03-29T07:36:15.986Z,9.09
2023-03-29T07:39:22.910Z,8.82
2023-03-29T07:42:53.073Z,9.10
2023-03-29T07:46:05.497Z,9.05
2023-03-29T07:49:13.155Z,9.24
2023-03-29T07:52:18.689Z,9.35
2023-03-29T07:55:23.975Z,9.59
2023-03-29T07:59:04.407Z,9.59
2023-03-29T08:02:11.502Z,9.81
2023-03-29T08:05:37.857Z,9.96
2023-03-29T08:08:49.525Z,9.90
2023-03-29T08:11:58.095Z,10.02
2023-03-29T08:15:11.362Z,10.12
2023-03-29T08:18:16.999Z,10.18
2023-03-29T08:21:22.693Z,10.39
2023-03-29T08:24:29.280Z,10.53
2023-03-29T08:27:40.631Z,10.60
2023-03-29T08:30:48.592Z,10.64
2023-03-29T08:33:54.471Z,10.74
2023-03-29T08:37:16.607Z,10.86
2023-03-29T08:40:30.461Z,11.02
2023-03-29T08:44:12.009Z,11.16
2023-03-29T08:48:14.395Z,11.21
2023-03-29T08:51:28.134Z,11.31
2023-03-29T08:54:43.717Z,11.32
2023-03-29T08:57:52.252Z,11.23
2023-03-29T09:01:09.652Z,11.20
2023-03-29T09:04:36.943Z,11.26
2023-03-29T09:07:53.561Z,11.30
2023-03-29T09:11:24.574Z,11.44
2023-03-29T09:14:48.321Z,11.57
2023-03-29T09:18:06.427Z,11.68
2023-03-29T09:21:26.551Z,11.73
2023-03-29T09:25:11.028Z,11.81
2023-03-29T09:28:45.075Z,11.96
2023-03-29T09:31:50.587Z,11.74
2023-03-29T09:35:18.815Z,12.14
2023-03-29T09:38:26.060Z,12.32
2023-03-29T09:42:12.393Z,12.01
2023-03-29T09:45:19.125Z,12.39
2023-03-29T09:48:32.501Z,12.14
2023-03-29T09:51:40.337Z,12.12
2023-03-29T09:54:45.825Z,12.47
2023-03-29T09:58:18.336Z,12.52
2023-03-29T10:01:38.034Z,12.56
2023-03-29T10:04:45.300Z,12.58
2023-03-29T10:07:58.084Z,12.66
2023-03-29T10:11:12.829Z,12.96
2023-03-29T10:14:26.644Z,13.02
2023-03-29T10:17:40.592Z,13.13
2023-03-29T10:20:47.945Z,13.23
2023-03-29T10:23:59.669Z,13.43
2023-03-29T10:27:10.754Z,13.20
2023-03-29T10:30:25.669Z,13.40
2023-03-29T10:33:34.344Z,13.72
2023-03-29T10:36:42.515Z,13.72
2023-03-29T10:39:49.296Z,13.76
2023-03-29T10:42:59.922Z,13.58
2023-03-29T10:46:21.521Z,13.81
2023-03-29T10:49:27.250Z,13.91
2023-03-29T10:52:33.569Z,13.75
2023-03-29T10:55:52.272Z,13.85
2023-03-29T10:59:10.340Z,14.10
2023-03-29T11:02:15.844Z,13.92
2023-03-29T11:05:35.154Z,14.20
2023-03-29T11:08:43.381Z,14.07
2023-03-29T11:12:15.544Z,14.42
2023-03-29T11:15:30.865Z,14.23
2023-03-29T11:18:54.804Z,14.54
2023-03-29T11:22:03.412Z,14.63
2023-03-29T11:25:20.610Z,14.48
2023-03-29T11:28:39.169Z,14.71
2023-03-29T11:32:14.698Z,14.44
2023-03-29T11:35:34.940Z,14.62
2023-03-29T11:38:59.053Z,15.01
2023-03-29T11:42:17.436Z,15.18
2023-03-29T11:45:34.950Z,15.22
2023-03-29T11:48:53.153Z,15.28
2023-03-29T11:52:07.238Z,14.97
2023-03-29T11:55:18.358Z,15.30
2023-03-29T11:58:32.224Z,15.09
2023-03-29T12:01:53.311Z,14.94
2023-03-29T12:05:02.554Z,15.15
2023-03-29T12:08:17.145Z,15.14
2023-03-29T12:11:23.159Z,15.07
2023-03-29T12:14:39.131Z,15.09
2023-03-29T12:18:03.467Z,14.89
2023-03-29T12:21:23.117Z,14.91
2023-03-29T12:24:32.889Z,14.90
2023-03-29T12:28:05.824Z,15.09
2023-03-29T12:31:39.639Z,15.19
2023-03-29T12:35:03.372Z,15.56
2023-03-29T12:38:31.157Z,15.50
2023-03-29T12:42:13.509Z,15.62
2023-03-29T12:45:48.935Z,15.57
2023-03-29T12:49:06.274Z,15.57
2023-03-29T12:52:35.579Z,15.67
2023-03-29T12:55:44.020Z,15.60
2023-03-29T12:59:05.689Z,15.77
2023-03-29T13:02:17.965Z,15.95
2023-03-29T13:05:34.912Z,16.03
2023-03-29T13:08:40.053Z,15.78
2023-03-29T13:11:52.810Z,15.88
2023-03-29T13:15:06.054Z,15.89
2023-03-29T13:18:49.566Z,15.91
2023-03-29T13:22:13.363Z,16.04
2023-03-29T13:25:43.083Z,16.19
2023-03-29T13:29:22.787Z,15.93
2023-03-29T13:32:43.985Z,16.30
2023-03-29T13:36:16.719Z,16.35
2023-03-29T13:39:28.234Z,16.22
2023-03-29T13:42:34.292Z,16.04
2023-03-29T13:45:39.711Z,16.03
2023-03-29T13:48:54.299Z,15.77
2023-03-29T13:52:23.814Z,16.08
2023-03-29T13:55:38.503Z,16.07
2023-03-29T13:58:49.341Z,16.28
2023-03-29T14:02:01.006Z,16.26
2023-03-29T14:05:12.548Z,16.57
2023-03-29T14:08:26.803Z,16.79
2023-03-29T14:11:32.590Z,16.62
2023-03-29T14:14:48.363Z,16.79
2023-03-29T14:18:03.439Z,16.83
2023-03-29T14:21:11.699Z,16.71
2023-03-29T14:24:21.885Z,16.75
2023-03-29T14:27:32.186Z,16.68
2023-03-29T14:30:37.503Z,16.79
2023-03-29T14:33:42.721Z,16.86
2023-03-29T14:36:49.440Z,16.84
2023-03-29T14:39:55.640Z,16.80
2023-03-29T14:43:06.907Z,16.91
2023-03-29T14:46:14.511Z,16.91
2023-03-29T14:49:23.246Z,16.93
2023-03-29T14:52:30.709Z,17.19
2023-03-29T14:55:36.836Z,17.19
2023-03-29T14:58:49.048Z,17.12
2023-03-29T15:01:54.854Z,17.04
2023-03-29T15:05:06.115Z,17.14
2023-03-29T15:08:18.887Z,17.22
2023-03-29T15:11:28.178Z,17.05
2023-03-29T15:14:37.322Z,17.10
2023-03-29T15:17:51.881Z,17.09
2023-03-29T15:20:59.714Z,17.00
2023-03-29T15:24:05.840Z,16.86
2023-03-29T15:27:17.226Z,17.01
2023-03-29T15:30:34.909Z,17.06
2023-03-29T15:33:42.918Z,16.92
2023-03-29T15:36:50.735Z,16.92
2023-03-29T15:39:56.904Z,16.80
2023-03-29T15:43:02.661Z,16.80
2023-03-29T15:46:08.227Z,16.84
2023-03-29T15:49:14.851Z,16.84
2023-03-29T15:52:20.436Z,16.87
2023-03-29T15:55:30.003Z,16.67
2023-03-29T15:58:36.204Z,16.58
2023-03-29T16:01:42.017Z,16.66
2023-03-29T16:04:47.668Z,16.48
2023-03-29T16:07:53.190Z,16.41
2023-03-29T16:10:58.609Z,16.44
2023-03-29T16:14:15.210Z,16.21
2023-03-29T16:17:20.912Z,16.30
2023-03-29T16:20:26.767Z,16.09
2023-03-29T16:23:32.856Z,16.15
2023-03-29T16:26:39.458Z,16.04
2023-03-29T16:29:44.957Z,16.12
2023-03-29T16:32:51.016Z,16.01
2023-03-29T16:35:56.679Z,15.89
2023-03-29T16:39:02.140Z,15.83
2023-03-29T16:42:11.518Z,15.73
2023-03-29T16:45:18.916Z,15.56
2023-03-29T16:48:24.701Z,15.52
2023-03-29T16:51:30.583Z,15.46
2023-03-29T16:54:36.393Z,15.43
2023-03-29T16:57:43.041Z,15.38
2023-03-29T17:00:48.706Z,15.31
2023-03-29T17:03:54.427Z,15.23
2023-03-29T17:06:59.725Z,15.13
2023-03-29T17:10:09.450Z,14.93
2023-03-29T17:13:14.612Z,14.87
2023-03-29T17:16:20.319Z,14.65
2023-03-29T17:19:26.116Z,14.56
2023-03-29T17:22:31.315Z,14.52
2023-03-29T17:25:37.254Z,14.46
2023-03-29T17:28:43.790Z,14.27
2023-03-29T17:31:50.075Z,13.99
2023-03-29T17:34:55.515Z,13.94
2023-03-29T17:38:01.675Z,13.87
2023-03-29T17:41:08.728Z,13.82
2023-03-29T17:44:14.556Z,13.65
2023-03-29T17:47:20.304Z,13.60
2023-03-29T17:50:26.596Z,13.59
2023-03-29T17:53:31.958Z,13.46
2023-03-29T17:56:37.899Z,13.35
2023-03-29T17:59:44.505Z,13.42
2023-03-29T18:02:49.978Z,13.31
2023-03-29T18:05:55.473Z,13.22
2023-03-29T18:09:01.759Z,13.23
2023-03-29T18:12:08.758Z,13.15
2023-03-29T18:15:14.347Z,13.10
2023-03-29T18:18:19.922Z,13.05
2023-03-29T18:21:27.318Z,12.99
2023-03-29T18:24:33.138Z,12.97
2023-03-29T18:27:39.805Z,12.89
2023-03-29T18:30:45.682Z,12.84
2023-03-29T18:33:51.068Z,12.82
2023-03-29T18:36:57.949Z,12.73
2023-03-29T18:40:08.318Z,12.79
2023-03-29T18:43:14.068Z,12.76
2023-03-29T18:46:19.459Z,12.75
2023-03-29T18:49:26.078Z,12.73
2023-03-29T18:52:31.636Z,12.66
2023-03-29T18:55:37.194Z,12.73
2023-03-29T18:58:43.242Z,12.62
2023-03-29T19:01:48.970Z,12.54
2023-03-29T19:04:54.549Z,12.58
2023-03-29T19:08:01.570Z,12.45
2023-03-29T19:11:10.000Z,12.50
2023-03-29T19:14:17.587Z,12.42
2023-03-29T19:17:24.302Z,12.37
2023-03-29T19:20:30.196Z,12.34
2023-03-29T19:23:36.471Z,12.32
2023-03-29T19:26:44.742Z,12.30
2023-03-29T19:29:50.226Z,12.28
2023-03-29T19:32:56.428Z,12.19
2023-03-29T19:36:02.380Z,12.22
2023-03-29T19:39:07.788Z,12.17
2023-03-29T19:42:13.418Z,12.08
2023-03-29T19:45:19.447Z,12.14
2023-03-29T19:48:25.126Z,12.07
2023-03-29T19:51:31.010Z,12.02
2023-03-29T19:54:36.835Z,12.22
2023-03-29T19:57:43.665Z,11.95
2023-03-29T20:00:55.070Z,11.90
2023-03-29T20:04:03.034Z,11.81
2023-03-29T20:07:09.935Z,11.71
2023-03-29T20:10:23.002Z,11.73
2023-03-29T20:13:38.376Z,11.78
2023-03-29T20:16:48.357Z,11.67
2023-03-29T20:19:56.739Z,11.70
2023-03-29T20:23:05.588Z,11.74
2023-03-29T20:26:12.511Z,11.85
2023-03-29T20:29:19.502Z,11.89
2023-03-29T20:32:25.039Z,11.76
2023-03-29T20:35:30.663Z,11.74
2023-03-29T20:38:37.390Z,11.70
2023-03-29T20:41:47.922Z,11.75
2023-03-29T20:44:54.143Z,11.68
2023-03-29T20:48:02.726Z,11.71
2023-03-29T20:51:10.373Z,11.78
2023-03-29T20:54:16.042Z,11.74
2023-03-29T20:57:22.138Z,11.74
2023-03-29T21:00:29.820Z,11.62
2023-03-29T21:03:37.720Z,11.65
2023-03-29T21:06:45.905Z,11.65
2023-03-29T21:09:51.428Z,11.70
2023-03-29T21:13:00.775Z,11.63
2023-03-29T21:16:06.416Z,11.66
2023-03-29T21:19:12.272Z,11.61
2023-03-29T21:22:18.420Z,11.59
2023-03-29T21:25:23.877Z,11.54
2023-03-29T21:28:30.257Z,11.43
2023-03-29T21:31:35.933Z,11.48
2023-03-29T21:34:41.693Z,11.41
2023-03-29T21:37:47.219Z,11.44
2023-03-29T21:40:52.947Z,11.46
2023-03-29T21:44:04.408Z,11.45
2023-03-29T21:47:09.941Z,11.45
2023-03-29T21:50:16.774Z,11.59
2023-03-29T21:53:22.316Z,11.57
2023-03-29T21:56:29.258Z,11.63
2023-03-29T21:59:34.674Z,11.61
2023-03-29T22:02:41.090Z,11.49
2023-03-29T22:06:00.443Z,11.46
2023-03-29T22:09:06.324Z,11.40
2023-03-29T22:12:12.340Z,11.21
2023-03-29T22:15:21.048Z,11.09
2023-03-29T22:18:44.137Z,11.16
2023-03-29T22:21:49.451Z,11.15
2023-03-29T22:24:56.271Z,11.22
2023-03-29T22:28:01.828Z,11.29
2023-03-29T22:31:14.020Z,11.16
2023-03-29T22:34:19.670Z,10.98
2023-03-29T22:37:25.625Z,10.88
2023-03-29T22:40:33.704Z,10.76
2023-03-29T22:43:39.590Z,10.92
2023-03-29T22:46:45.223Z,10.94
2023-03-29T22:49:51.520Z,10.98
2023-03-29T22:52:57.724Z,10.82
2023-03-29T22:56:04.629Z,10.95
2023-03-29T22:59:10.367Z,10.96
2023-03-29T23:02:17.326Z,10.97
2023-03-29T23:05:23.693Z,10.88
2023-03-29T23:08:31.149Z,10.79
2023-03-29T23:11:37.200Z,10.80
2023-03-29T23:14:43.097Z,10.80
2023-03-29T23:17:48.996Z,10.74
2023-03-29T23:20:56.852Z,10.73
2023-03-29T23:24:02.591Z,10.60
2023-03-29T23:27:08.226Z,10.61
2023-03-29T23:30:13.819Z,10.53
2023-03-29T23:33:22.200Z,10.45
2023-03-29T23:36:31.549Z,10.44
2023-03-29T23:39:36.823Z,10.46
2023-03-29T23:42:44.430Z,10.40
2023-03-29T23:45:56.474Z,10.31
2023-03-29T23:49:01.987Z,10.26
2023-03-29T23:52:07.998Z,10.32
2023-03-29T23:55:17.368Z,10.33
2023-03-29T23:58:22.614Z,10.35
